Time;durP1;ratioP1;P1;durP2;ratioP2;P2;SDS_P1;SDS_P2;PMS_P1;PMS_P2;Temp;Humidity;BMP_temperature;BMP_pressure;BME280_temperature;BME280_humidity;BME280_pressure;Samples;Min_cycle;Max_cycle;Signal;HPM_P1;HPM_P2
2022/12/19 00:02:04;;;;;;;41.70;23.10;;;;;;;-5.53;100.00;97407.47;4911482;28;102706;-71
2022/12/19 00:04:33;;;;;;;46.47;22.63;;;;;;;-5.74;100.00;97401.47;4894885;28;102095;-71
2022/12/19 00:07:01;;;;;;;42.13;22.47;;;;;;;-5.71;100.00;97390.03;4894812;28;106614;-71
2022/12/19 00:09:28;;;;;;;41.20;22.53;;;;;;;-5.74;100.00;97401.47;4911333;28;101736;-71
2022/12/19 00:11:54;;;;;;;40.07;21.40;;;;;;;-5.68;100.00;97392.41;4898363;28;101991;-71
2022/12/19 00:14:22;;;;;;;44.23;22.00;;;;;;;-5.59;100.00;97378.66;4895508;28;102085;-71
2022/12/19 00:16:50;;;;;;;48.27;23.77;;;;;;;-5.46;100.00;97377.50;4913770;28;101893;-71
2022/12/19 00:19:19;;;;;;;39.77;22.83;;;;;;;-5.40;100.00;97389.97;4913746;28;102571;-71
2022/12/19 00:21:46;;;;;;;43.20;22.90;;;;;;;-5.39;100.00;97381.25;4913713;28;101981;-71
2022/12/19 00:24:14;;;;;;;42.77;22.30;;;;;;;-5.39;100.00;97377.84;4897131;28;101933;-71
2022/12/19 00:26:41;;;;;;;43.57;22.33;;;;;;;-5.34;100.00;97371.28;4896683;28;105389;-71
2022/12/19 00:29:11;;;;;;;41.77;22.70;;;;;;;-5.35;100.00;97366.25;4896051;28;103672;-71
2022/12/19 00:31:38;;;;;;;41.97;22.83;;;;;;;-5.23;100.00;97358.25;4896172;28;101929;-71
2022/12/19 00:34:06;;;;;;;43.57;22.40;;;;;;;-5.28;100.00;97350.06;4898542;28;105559;-71
2022/12/19 00:36:35;;;;;;;43.03;21.80;;;;;;;-5.28;100.00;97347.47;4896558;28;101852;-71
2022/12/19 00:39:04;;;;;;;45.27;23.40;;;;;;;-5.41;100.00;97354.63;4896463;28;104310;-72
2022/12/19 00:41:35;;;;;;;41.70;21.70;;;;;;;-5.46;100.00;97368.94;4896038;28;105881;-70
2022/12/19 00:44:05;;;;;;;38.80;22.23;;;;;;;-5.39;100.00;97365.72;4896748;28;102497;-71
2022/12/19 00:46:33;;;;;;;37.63;20.07;;;;;;;-5.24;100.00;97366.19;4896675;28;105669;-71
2022/12/19 00:49:01;;;;;;;43.53;22.17;;;;;;;-5.41;100.00;97370.19;4895725;28;105628;-70
2022/12/19 00:51:33;;;;;;;40.73;21.57;;;;;;;-5.45;100.00;97381.75;4896140;28;101955;-71
2022/12/19 00:54:02;;;;;;;38.87;21.90;;;;;;;-5.39;100.00;97386.44;4895423;28;105527;-71
2022/12/19 00:56:32;;;;;;;40.37;21.63;;;;;;;-5.22;100.00;97375.47;4898616;28;105540;-72
2022/12/19 00:59:01;;;;;;;39.60;22.90;;;;;;;-5.29;100.00;97376.91;4913401;28;103548;-71
2022/12/19 01:01:30;;;;;;;40.13;22.07;;;;;;;-5.28;100.00;97365.63;4893812;28;105957;-71
2022/12/19 01:03:58;;;;;;;41.07;22.40;;;;;;;-5.28;100.00;97377.75;4895782;28;101937;-71
2022/12/19 01:06:26;;;;;;;40.43;22.10;;;;;;;-5.30;100.00;97370.09;4913659;28;102383;-71
2022/12/19 01:08:54;;;;;;;37.23;20.77;;;;;;;-5.32;100.00;97361.63;4893297;28;105878;-71
2022/12/19 01:14:04;;;;;;;37.33;20.90;;;;;;;-5.30;100.00;97348.56;4895347;28;105718;-71
2022/12/19 01:16:32;;;;;;;35.63;21.20;;;;;;;-5.10;100.00;97343.31;4894756;28;105460;-71
2022/12/19 01:18:59;;;;;;;40.00;21.70;;;;;;;-4.87;100.00;97316.22;4899983;28;101713;-71
2022/12/19 01:21:27;;;;;;;38.50;21.20;;;;;;;-4.80;100.00;97300.94;4893485;28;105420;-71
2022/12/19 01:23:55;;;;;;;38.73;20.33;;;;;;;-4.66;100.00;97308.31;4896129;28;101944;-71
2022/12/19 01:26:24;;;;;;;38.20;22.40;;;;;;;-4.74;100.00;97324.56;4895468;28;105518;-71
2022/12/19 01:28:51;;;;;;;39.97;21.83;;;;;;;-5.00;100.00;97338.97;4894576;28;105929;-71
2022/12/19 01:31:19;;;;;;;37.73;21.73;;;;;;;-5.11;100.00;97338.25;4914310;28;101755;-71
2022/12/19 01:33:47;;;;;;;38.13;21.87;;;;;;;-5.18;100.00;97329.38;4896609;28;105260;-70
2022/12/19 01:36:16;;;;;;;39.37;21.73;;;;;;;-5.08;100.00;97325.84;4895233;28;105107;-71
2022/12/19 01:38:45;;;;;;;35.47;21.07;;;;;;;-5.07;100.00;97324.88;4898611;28;101918;-71
2022/12/19 01:41:12;;;;;;;39.60;20.03;;;;;;;-4.98;100.00;97321.50;4895754;28;105408;-71
2022/12/19 01:46:37;;;;;;;34.50;20.50;;;;;;;-4.95;100.00;97313.47;5051534;27;101541;-71
2022/12/19 01:49:06;;;;;;;42.60;22.17;;;;;;;-4.80;100.00;97313.91;5045711;27;105275;-70
2022/12/19 01:51:39;;;;;;;38.27;21.40;;;;;;;-4.76;100.00;97317.88;5049244;27;101818;-71
2022/12/19 01:54:11;;;;;;;35.97;20.87;;;;;;;-4.92;100.00;97315.78;5045284;27;106362;-71
2022/12/19 01:56:41;;;;;;;36.73;21.27;;;;;;;-4.91;100.00;97303.66;5047120;27;105428;-71
2022/12/19 01:59:11;;;;;;;37.73;20.90;;;;;;;-4.76;100.00;97302.31;5045353;27;102126;-71
2022/12/19 02:01:45;;;;;;;36.47;20.23;;;;;;;-4.77;100.00;97305.84;5047873;27;102635;-71
2022/12/19 02:04:13;;;;;;;38.40;21.23;;;;;;;-4.71;100.00;97300.13;5046922;27;103147;-71
2022/12/19 02:06:42;;;;;;;36.87;21.30;;;;;;;-4.75;100.00;97296.97;5049709;27;101877;-71
2022/12/19 02:09:09;;;;;;;36.63;21.07;;;;;;;-4.50;100.00;97291.28;5046686;27;104509;-71
2022/12/19 02:11:37;;;;;;;39.47;21.33;;;;;;;-4.59;100.00;97275.72;5046614;27;101896;-71
2022/12/19 02:14:04;;;;;;;35.43;20.33;;;;;;;-4.41;100.00;97274.91;5047099;27;102943;-71
2022/12/19 02:16:44;;;;;;;40.03;21.43;;;;;;;-4.46;100.00;97274.50;5044220;27;105030;-71
2022/12/19 02:19:39;;;;;;;40.00;20.53;;;;;;;-4.83;100.00;97291.66;5081613;27;101957;-70
2022/12/19 02:22:17;;;;;;;40.83;21.60;;;;;;;-4.86;100.00;97289.31;5048242;27;105144;-70
2022/12/19 02:25:20;;;;;;;37.97;20.97;;;;;;;-5.08;100.00;97284.34;5044351;27;105776;-71
2022/12/19 02:28:05;;;;;;;36.23;20.97;;;;;;;-5.07;100.00;97290.38;5047647;27;101902;-71
2022/12/19 02:30:57;;;;;;;36.77;20.53;;;;;;;-5.08;100.00;97271.38;5050913;27;103934;-70
2022/12/19 02:33:32;;;;;;;34.43;19.70;;;;;;;-4.99;100.00;97272.38;5044917;27;102330;-71
2022/12/19 02:36:08;;;;;;;39.03;20.47;;;;;;;-5.11;100.00;97284.63;5045921;27;104111;-71
2022/12/19 02:38:41;;;;;;;37.60;20.67;;;;;;;-5.07;100.00;97278.22;5044761;27;105979;-70
2022/12/19 02:41:14;;;;;;;37.80;21.50;;;;;;;-4.94;100.00;97298.72;5046598;27;101793;-71
2022/12/19 02:43:50;;;;;;;36.10;21.00;;;;;;;-4.98;100.00;97274.00;5044434;27;104888;-71
2022/12/19 02:46:21;;;;;;;36.53;20.90;;;;;;;-5.03;100.00;97284.78;5043438;27;105558;-71
2022/12/19 02:48:50;;;;;;;38.83;21.80;;;;;;;-5.06;100.00;97295.44;5046949;27;101679;-71
2022/12/19 02:51:17;;;;;;;36.60;19.73;;;;;;;-5.07;100.00;97291.19;5046266;27;104623;-71
2022/12/19 02:53:47;;;;;;;35.40;21.13;;;;;;;-5.06;100.00;97295.44;5050573;27;103946;-70
2022/12/19 02:56:27;;;;;;;36.37;20.40;;;;;;;-5.07;100.00;97304.13;5040888;27;103775;-71
2022/12/19 02:59:09;;;;;;;36.47;20.87;;;;;;;-5.12;100.00;97298.56;5033307;28;103174;-71
2022/12/19 03:01:49;;;;;;;34.30;21.00;;;;;;;-5.13;100.00;97311.66;5032359;28;101759;-71
2022/12/19 03:04:28;;;;;;;37.43;20.03;;;;;;;-5.23;100.00;97323.75;5030201;28;105097;-71
2022/12/19 03:07:02;;;;;;;35.40;20.10;;;;;;;-5.43;100.00;97337.56;5031940;28;107330;-71
2022/12/19 03:09:40;;;;;;;34.77;20.23;;;;;;;-5.49;100.00;97341.50;5031111;28;101767;-71
2022/12/19 03:12:14;;;;;;;36.67;20.03;;;;;;;-5.48;100.00;97337.97;5032922;28;105248;-71
2022/12/19 03:14:42;;;;;;;39.33;20.43;;;;;;;-5.60;100.00;97323.47;5030224;28;105159;-71
2022/12/19 03:17:10;;;;;;;34.53;20.50;;;;;;;-5.66;100.00;97326.56;5037267;28;101767;-71
2022/12/19 03:19:40;;;;;;;36.37;20.30;;;;;;;-5.61;100.00;97337.38;5029603;28;105627;-71
2022/12/19 03:22:07;;;;;;;38.00;21.57;;;;;;;-5.66;100.00;97368.00;5031354;28;101731;-71
2022/12/19 03:24:34;;;;;;;41.80;21.70;;;;;;;-5.65;100.00;97386.94;5030029;28;105561;-71
2022/12/19 03:27:04;;;;;;;38.53;21.50;;;;;;;-5.70;100.00;97382.16;5030989;28;103174;-71
2022/12/19 03:29:34;;;;;;;41.60;22.03;;;;;;;-5.63;100.00;97380.69;5031406;27;101691;-71
2022/12/19 03:32:05;;;;;;;39.80;22.10;;;;;;;-5.68;100.00;97397.56;5032755;28;104361;-70
2022/12/19 03:34:38;;;;;;;38.67;21.20;;;;;;;-5.62;100.00;97404.84;5031525;28;104880;-71
2022/12/19 03:37:10;;;;;;;39.33;21.97;;;;;;;-5.53;100.00;97414.41;5029629;28;102009;-71
2022/12/19 03:39:39;;;;;;;39.70;22.40;;;;;;;-5.53;100.00;97415.25;5032523;28;105302;-71
2022/12/19 03:44:55;;;;;;;41.07;22.00;;;;;;;-5.42;100.00;97454.06;5029143;28;105636;-71
2022/12/19 03:47:28;;;;;;;40.57;23.13;;;;;;;-5.44;100.00;97448.19;5029108;28;105672;-71
2022/12/19 03:49:56;;;;;;;41.43;21.97;;;;;;;-5.34;100.00;97440.47;5030658;28;101982;-71
2022/12/19 03:52:30;;;;;;;39.23;22.60;;;;;;;-5.26;100.00;97438.88;5030971;28;105838;-71
2022/12/19 03:55:03;;;;;;;39.97;21.97;;;;;;;-5.04;100.00;97441.31;5030664;28;105441;-71
2022/12/19 03:57:35;;;;;;;41.87;22.07;;;;;;;-5.00;100.00;97437.53;5029991;28;101854;-71
2022/12/19 04:00:06;;;;;;;40.93;22.63;;;;;;;-4.96;100.00;97441.47;5029631;28;104848;-71
2022/12/19 04:02:44;;;;;;;39.33;21.60;;;;;;;-4.92;100.00;97455.84;5031513;27;101680;-71
2022/12/19 04:05:17;;;;;;;43.07;22.87;;;;;;;-5.12;100.00;97472.28;5030898;27;102542;-71
2022/12/19 04:07:44;;;;;;;41.33;23.00;;;;;;;-5.04;100.00;97482.81;5029817;27;102746;-71
2022/12/19 04:10:16;;;;;;;42.37;22.37;;;;;;;-5.03;100.00;97483.66;5030417;28;101893;-71
2022/12/19 04:12:48;;;;;;;38.83;21.60;;;;;;;-5.00;100.00;97480.78;5033599;27;102516;-71
2022/12/19 04:15:15;;;;;;;38.87;21.93;;;;;;;-4.81;100.00;97481.69;5031326;27;102850;-71
2022/12/19 04:17:48;;;;;;;40.93;22.20;;;;;;;-5.04;100.00;97492.34;5031318;27;101764;-71
2022/12/19 04:20:19;;;;;;;40.27;22.03;;;;;;;-5.00;100.00;97486.81;5033761;27;102810;-71
2022/12/19 04:22:55;;;;;;;41.50;22.83;;;;;;;-4.91;100.00;97493.78;5035099;28;105367;-71
2022/12/19 04:25:25;;;;;;;40.33;22.40;;;;;;;-4.89;100.00;97486.72;5031684;27;102332;-71
2022/12/19 04:27:57;;;;;;;39.47;23.17;;;;;;;-4.82;100.00;97472.28;5029027;28;104586;-71
2022/12/19 04:30:24;;;;;;;39.23;21.90;;;;;;;-4.76;100.00;97479.53;5033236;27;102070;-70
2022/12/19 04:32:52;;;;;;;41.20;21.03;;;;;;;-4.58;100.00;97477.16;5030359;28;103754;-71
2022/12/19 04:35:22;;;;;;;42.43;21.87;;;;;;;-4.37;100.00;97463.16;5029937;28;105900;-71
2022/12/19 04:37:51;;;;;;;38.63;21.57;;;;;;;-4.32;100.00;97473.16;5031079;28;101916;-71
2022/12/19 04:40:18;;;;;;;41.67;23.40;;;;;;;-4.18;100.00;97471.00;5032231;27;102567;-71
2022/12/19 04:42:45;;;;;;;41.07;23.00;;;;;;;-4.15;100.00;97462.13;5032567;27;102788;-71
2022/12/19 04:45:12;;;;;;;40.23;23.33;;;;;;;-4.11;100.00;97458.28;5034463;28;102781;-71
2022/12/19 04:47:40;;;;;;;42.63;23.53;;;;;;;-4.04;100.00;97452.41;5032842;27;101772;-71
2022/12/19 04:50:10;;;;;;;40.63;23.43;;;;;;;-3.93;100.00;97465.28;5032102;27;101987;-71
2022/12/19 04:52:39;;;;;;;41.37;22.83;;;;;;;-4.15;100.00;97465.53;5032977;27;101758;-71
2022/12/19 04:55:07;;;;;;;40.80;23.50;;;;;;;-4.28;100.00;97470.16;5029733;28;105849;-71
2022/12/19 04:57:34;;;;;;;41.97;23.47;;;;;;;-4.24;100.00;97455.13;5030268;28;101948;-71
2022/12/19 05:00:02;;;;;;;39.73;22.50;;;;;;;-4.03;100.00;97453.25;5031140;27;103012;-71
2022/12/19 05:02:30;;;;;;;40.70;23.00;;;;;;;-4.12;100.00;97470.47;5029400;28;105955;-71
2022/12/19 05:04:57;;;;;;;37.40;21.37;;;;;;;-4.11;100.00;97476.47;5029470;28;101785;-71
2022/12/19 05:07:24;;;;;;;40.07;22.93;;;;;;;-4.20;100.00;97477.28;5032678;27;102464;-71
2022/12/19 05:09:53;;;;;;;37.90;22.57;;;;;;;-4.25;100.00;97485.44;5030922;27;102062;-71
2022/12/19 05:12:19;;;;;;;38.83;22.43;;;;;;;-4.15;100.00;97493.28;5029650;28;105584;-71
2022/12/19 05:14:46;;;;;;;35.80;21.47;;;;;;;-4.26;100.00;97467.44;5027658;28;105497;-71
2022/12/19 05:17:13;;;;;;;39.50;22.40;;;;;;;-4.13;100.00;97474.03;5011501;28;101935;-71
2022/12/19 05:19:40;;;;;;;39.30;22.00;;;;;;;-4.09;100.00;97480.56;5029527;27;102357;-71
2022/12/19 05:22:07;;;;;;;38.70;22.07;;;;;;;-4.20;100.00;97472.88;5029176;27;103071;-71
2022/12/19 05:24:33;;;;;;;37.77;21.13;;;;;;;-4.02;100.00;97460.91;5028183;28;101911;-71
2022/12/19 05:27:02;;;;;;;38.63;22.77;;;;;;;-3.90;100.00;97465.03;5028402;28;105606;-71
2022/12/19 05:29:29;;;;;;;38.77;22.67;;;;;;;-3.90;100.00;97462.44;5030730;28;102679;-71
2022/12/19 05:31:56;;;;;;;33.27;20.97;;;;;;;-3.71;100.00;97454.63;5028458;28;105561;-71
2022/12/19 05:34:24;;;;;;;39.30;22.27;;;;;;;-3.78;100.00;97452.75;5030603;27;102457;-71
2022/12/19 05:36:51;;;;;;;40.83;22.53;;;;;;;-3.73;100.00;97456.56;5030779;28;102089;-71
2022/12/19 05:39:18;;;;;;;38.20;22.90;;;;;;;-3.65;100.00;97451.47;5029330;28;105264;-71
2022/12/19 05:41:45;;;;;;;41.47;22.77;;;;;;;-3.74;100.00;97452.31;5030888;28;105147;-71
2022/12/19 05:44:15;;;;;;;42.20;24.17;;;;;;;-3.81;100.00;97474.63;5031159;27;103238;-71
2022/12/19 05:46:42;;;;;;;42.43;23.63;;;;;;;-3.92;100.00;97455.72;5030992;28;105022;-71
2022/12/19 05:49:18;;;;;;;39.63;23.03;;;;;;;-4.04;100.00;97442.03;5030339;28;104513;-71
2022/12/19 05:51:48;;;;;;;38.67;22.77;;;;;;;-3.91;100.00;97441.78;5033901;27;101993;-71
2022/12/19 05:54:15;;;;;;;35.30;21.67;;;;;;;-3.88;100.00;97405.94;5027922;28;105849;-71
2022/12/19 05:56:42;;;;;;;39.10;22.73;;;;;;;-3.80;100.00;97376.69;5028202;28;102048;-71
2022/12/19 05:59:10;;;;;;;38.00;22.97;;;;;;;-3.96;100.00;97377.25;5028389;28;105762;-71
2022/12/19 06:01:39;;;;;;;39.87;23.87;;;;;;;-3.85;100.00;97369.31;5028765;27;102860;-71
2022/12/19 06:04:06;;;;;;;42.10;24.80;;;;;;;-3.94;100.00;97393.50;5027679;27;102008;-71
2022/12/19 06:06:33;;;;;;;37.27;21.27;;;;;;;-3.98;100.00;97365.34;5028032;28;105693;-71
2022/12/19 06:09:00;;;;;;;37.23;22.27;;;;;;;-3.93;100.00;97397.75;5028504;27;103156;-71
2022/12/19 06:11:28;;;;;;;39.10;21.53;;;;;;;-4.23;100.00;97423.84;5032497;28;101900;-71
2022/12/19 06:13:54;;;;;;;40.00;23.00;;;;;;;-4.28;100.00;97410.44;5028365;27;102611;-71
2022/12/19 06:16:23;;;;;;;38.17;22.43;;;;;;;-4.38;100.00;97427.75;5029158;27;101685;-71
2022/12/19 06:18:51;;;;;;;42.27;23.93;;;;;;;-4.41;100.00;97438.44;5028613;27;102964;-71
2022/12/19 06:21:20;;;;;;;41.47;22.57;;;;;;;-4.54;100.00;97453.41;5028166;27;102607;-71
2022/12/19 06:23:47;;;;;;;39.03;22.53;;;;;;;-4.40;100.00;97449.63;5027506;28;101901;-71
2022/12/19 06:26:16;;;;;;;37.90;22.00;;;;;;;-4.59;100.00;97467.75;5027284;28;105528;-71
2022/12/19 06:28:43;;;;;;;40.70;23.37;;;;;;;-4.63;100.00;97446.41;5028305;27;102632;-71
2022/12/19 06:31:12;;;;;;;42.63;23.57;;;;;;;-4.54;100.00;97447.41;5029042;27;102151;-71
2022/12/19 06:33:39;;;;;;;43.90;23.93;;;;;;;-4.43;100.00;97452.50;5034893;27;102847;-71
2022/12/19 06:36:11;;;;;;;44.13;23.57;;;;;;;-4.35;100.00;97445.69;5030828;28;102070;-71
2022/12/19 06:38:38;;;;;;;46.93;23.80;;;;;;;-4.23;100.00;97446.38;5032389;27;102885;-71
2022/12/19 06:43:50;;;;;;;40.70;23.07;;;;;;;-4.05;100.00;97439.59;5031858;27;101961;-71
2022/12/19 06:46:16;;;;;;;41.43;23.97;;;;;;;-3.73;100.00;97455.72;5029972;28;105279;-71
2022/12/19 06:48:43;;;;;;;42.87;24.83;;;;;;;-3.68;100.00;97449.16;5031588;27;102474;-71
2022/12/19 06:51:11;;;;;;;45.20;25.00;;;;;;;-3.54;100.00;97451.38;5032020;27;102133;-71
2022/12/19 06:53:39;;;;;;;43.57;24.30;;;;;;;-3.40;100.00;97453.53;5031595;27;102330;-71
2022/12/19 06:56:07;;;;;;;44.53;24.93;;;;;;;-3.42;100.00;97441.63;5033498;28;105913;-71
2022/12/19 06:58:34;;;;;;;46.17;26.20;;;;;;;-3.58;100.00;97450.00;5032133;27;102261;-71
2022/12/19 07:01:01;;;;;;;47.00;26.37;;;;;;;-3.72;100.00;97450.41;5031632;27;102507;-71
2022/12/19 07:04:06;;;;;;;41.93;23.83;;;;;;;-3.80;100.00;97471.06;5030725;28;101930;-71
2022/12/19 07:06:35;;;;;;;44.33;24.87;;;;;;;-3.98;100.00;97488.25;5032387;27;102338;-71
2022/12/19 07:09:02;;;;;;;42.90;23.67;;;;;;;-3.96;100.00;97486.34;5013246;28;106103;-71
2022/12/19 07:11:29;;;;;;;41.97;24.10;;;;;;;-4.12;100.00;97480.00;5030541;28;101831;-71
2022/12/19 07:13:58;;;;;;;43.63;24.13;;;;;;;-4.06;100.00;97480.31;5031917;27;102172;-71
2022/12/19 07:16:26;;;;;;;40.93;24.57;;;;;;;-4.05;100.00;97479.34;5029925;28;105386;-71
2022/12/19 07:18:54;;;;;;;47.47;25.87;;;;;;;-4.05;100.00;97463.78;5033952;28;101889;-71
2022/12/19 07:21:21;;;;;;;44.97;25.87;;;;;;;-3.95;100.00;97461.19;5029809;28;105765;-71
2022/12/19 07:24:22;;;;;;;43.60;25.53;;;;;;;-3.70;100.00;97471.88;5030168;28;101970;-71
2022/12/19 07:26:48;;;;;;;42.20;23.87;;;;;;;-3.62;100.00;97468.56;5030528;28;105084;-71
2022/12/19 07:29:16;;;;;;;40.97;24.27;;;;;;;-3.50;100.00;97467.50;5029770;28;104985;-71
2022/12/19 07:31:43;;;;;;;39.00;23.87;;;;;;;-3.33;100.00;97459.81;5031602;27;102037;-71
2022/12/19 07:34:12;;;;;;;40.17;23.77;;;;;;;-3.20;100.00;97460.34;5029933;28;105122;-71
2022/12/19 07:36:39;;;;;;;42.57;24.50;;;;;;;-3.35;100.00;97466.09;5029740;28;105346;-71
2022/12/19 07:39:05;;;;;;;40.70;23.53;;;;;;;-3.17;100.00;97465.25;5030085;28;101979;-71
2022/12/19 07:41:36;;;;;;;41.13;23.67;;;;;;;-3.07;100.00;97468.66;5033084;28;105138;-71
2022/12/19 07:44:03;;;;;;;42.43;24.07;;;;;;;-2.98;100.00;97473.03;5030128;27;101891;-71
2022/12/19 07:46:30;;;;;;;43.00;23.07;;;;;;;-2.94;100.00;97466.59;5029790;28;105170;-71
2022/12/19 07:49:00;;;;;;;40.67;23.30;;;;;;;-2.98;100.00;97470.44;5029538;28;105242;-71
2022/12/19 07:51:27;;;;;;;42.23;24.63;;;;;;;-2.84;100.00;97467.38;5030180;28;101880;-71
2022/12/19 07:53:59;;;;;;;38.47;22.47;;;;;;;-2.79;100.00;97466.97;5029911;28;105051;-71
2022/12/19 07:56:26;;;;;;;39.47;22.97;;;;;;;-2.62;100.00;97461.00;5029443;28;105275;-71
2022/12/19 07:58:54;;;;;;;38.07;23.53;;;;;;;-2.48;100.00;97465.72;5030073;28;101976;-71
2022/12/19 08:01:21;;;;;;;37.07;22.57;;;;;;;-2.25;100.00;97460.00;5029790;28;105400;-71
2022/12/19 08:03:50;;;;;;;43.90;24.43;;;;;;;-2.27;100.00;97474.13;5032573;28;105031;-71
2022/12/19 08:06:17;;;;;;;44.90;25.00;;;;;;;-2.56;100.00;97471.69;5029603;28;105189;-71
2022/12/19 08:08:44;;;;;;;35.17;21.60;;;;;;;-2.54;100.00;97472.34;5028933;28;105271;-71
2022/12/19 08:11:12;;;;;;;37.50;22.60;;;;;;;-2.30;100.00;97457.00;5029732;28;101985;-71
2022/12/19 08:13:41;;;;;;;38.40;23.10;;;;;;;-2.14;100.00;97457.19;5029605;28;105251;-71
2022/12/19 08:16:10;;;;;;;35.53;21.93;;;;;;;-2.00;100.00;97459.31;5029045;28;105702;-71
2022/12/19 08:18:37;;;;;;;37.63;23.40;;;;;;;-2.10;100.00;97457.72;5029415;28;101853;-71
2022/12/19 08:21:04;;;;;;;40.07;23.27;;;;;;;-1.99;100.00;97449.69;5031449;27;103027;-71
2022/12/19 08:23:37;;;;;;;38.97;23.07;;;;;;;-1.68;100.00;97450.97;5032296;28;106229;-71
2022/12/19 08:26:06;;;;;;;38.90;24.57;;;;;;;-1.61;100.00;97452.03;5012640;28;104563;-71
2022/12/19 08:28:35;;;;;;;40.23;23.93;;;;;;;-1.64;100.00;97447.91;5028584;28;105528;-71
2022/12/19 08:31:06;;;;;;;37.30;22.30;;;;;;;-1.62;100.00;97455.59;5029455;28;101718;-71
2022/12/19 08:33:48;;;;;;;40.13;24.97;;;;;;;-1.85;100.00;97452.63;5030764;27;102573;-71
2022/12/19 08:36:17;;;;;;;39.33;23.83;;;;;;;-1.88;100.00;97449.47;5029131;28;105486;-71
2022/12/19 08:38:44;;;;;;;39.33;23.60;;;;;;;-1.72;100.00;97444.41;5029388;28;102008;-71
2022/12/19 08:41:11;;;;;;;42.93;26.10;;;;;;;-1.68;100.00;97444.00;5029548;27;102534;-71
2022/12/19 08:43:40;;;;;;;41.40;24.60;;;;;;;-1.76;100.00;97449.13;5029507;27;102645;-71
2022/12/19 08:46:08;;;;;;;39.53;24.40;;;;;;;-1.70;100.00;97451.13;5033639;27;101732;-71
2022/12/19 08:48:36;;;;;;;38.53;23.57;;;;;;;-1.93;100.00;97455.13;5029265;27;102957;-71
2022/12/19 08:51:07;;;;;;;38.40;23.87;;;;;;;-1.83;100.00;97444.66;5030004;27;101791;-71
2022/12/19 08:53:36;;;;;;;40.33;23.87;;;;;;;-1.80;100.00;97439.94;5030076;27;102345;-71
2022/12/19 08:56:06;;;;;;;38.90;23.30;;;;;;;-2.08;100.00;97438.38;5028762;27;103001;-70
2022/12/19 08:58:33;;;;;;;38.17;24.13;;;;;;;-2.17;100.00;97436.66;5029817;27;101799;-66
2022/12/19 09:01:00;;;;;;;38.03;22.23;;;;;;;-1.97;100.00;97432.13;5028913;28;105594;-76
2022/12/19 09:03:27;;;;;;;35.67;22.30;;;;;;;-2.16;100.00;97438.28;5029161;27;102838;-70
2022/12/19 09:05:57;;;;;;;38.43;23.00;;;;;;;-1.85;100.00;97430.94;5028875;28;101876;-71
2022/12/19 09:08:27;;;;;;;39.97;24.47;;;;;;;-1.58;100.00;97428.25;5031372;28;105687;-65
2022/12/19 09:10:59;;;;;;;39.77;23.50;;;;;;;-1.49;100.00;97430.78;5028585;28;101863;-66
2022/12/19 09:13:27;;;;;;;43.63;25.40;;;;;;;-1.43;100.00;97430.19;5030045;27;102273;-64
2022/12/19 09:16:02;;;;;;;39.60;23.40;;;;;;;-1.46;100.00;97421.84;5027712;28;105344;-66
2022/12/19 09:18:30;;;;;;;35.30;22.00;;;;;;;-1.23;100.00;97429.03;5029428;27;101819;-67
2022/12/19 09:20:57;;;;;;;39.10;23.87;;;;;;;-1.09;100.00;97423.25;5028165;28;105009;-68
2022/12/19 09:23:26;;;;;;;37.40;23.20;;;;;;;-1.21;100.00;97419.25;5027595;28;105800;-69
2022/12/19 09:25:53;;;;;;;36.57;23.77;;;;;;;-0.92;100.00;97419.78;5029442;27;101847;-71
2022/12/19 09:28:20;;;;;;;41.53;25.17;;;;;;;-0.60;100.00;97427.78;5028084;28;105401;-63
2022/12/19 09:30:55;;;;;;;38.47;23.70;;;;;;;-0.65;100.00;97414.38;5031059;28;105451;-71
2022/12/19 09:33:24;;;;;;;40.43;23.53;;;;;;;-0.46;100.00;97414.13;5028120;28;105119;-70
2022/12/19 09:35:51;;;;;;;38.50;23.53;;;;;;;-0.28;100.00;97408.81;5029027;27;103076;-71
2022/12/19 09:38:19;;;;;;;40.30;24.17;;;;;;;-0.20;100.00;97423.53;5029531;27;101976;-71
2022/12/19 09:40:59;;;;;;;39.20;24.57;;;;;;;-0.15;100.00;97412.63;5027761;28;104100;-71
2022/12/19 09:43:53;;;;;;;37.40;24.17;;;;;;;0.00;100.00;97406.59;5027691;28;105900;-71
2022/12/19 09:46:26;;;;;;;36.33;23.40;;;;;;;0.20;100.00;97404.50;5028019;28;102039;-71
2022/12/19 09:48:55;;;;;;;38.10;24.10;;;;;;;0.30;100.00;97392.09;5029299;27;101664;-70
2022/12/19 09:51:34;;;;;;;39.07;25.03;;;;;;;0.39;100.00;97397.16;5028645;27;103129;-72
2022/12/19 09:54:11;;;;;;;34.60;24.60;;;;;;;0.57;100.00;97384.75;5031228;28;101790;-72
2022/12/19 09:56:43;;;;;;;35.10;23.10;;;;;;;0.66;100.00;97381.13;5028845;27;103001;-72
2022/12/19 09:59:15;;;;;;;35.60;22.90;;;;;;;0.87;100.00;97375.38;5029399;27;101762;-72
2022/12/19 10:01:50;;;;;;;40.70;24.87;;;;;;;0.94;100.00;97376.38;5027964;28;105627;-72
2022/12/19 10:04:19;;;;;;;39.60;26.43;;;;;;;1.01;100.00;97370.28;5028518;27;101843;-72
2022/12/19 10:06:46;;;;;;;35.53;24.43;;;;;;;1.33;100.00;97370.22;5030460;27;101763;-72
2022/12/19 10:09:16;;;;;;;38.03;24.00;;;;;;;1.30;100.00;97367.91;5031234;28;105565;-72
2022/12/19 10:15:01;;;;;;;36.63;23.40;;;;;;;1.68;100.00;97348.75;5050614;27;101703;-72
2022/12/19 10:17:38;;;;;;;41.17;25.57;;;;;;;1.65;100.00;97340.41;5045938;27;102503;-72
2022/12/19 10:20:19;;;;;;;50.47;30.13;;;;;;;1.80;100.00;97336.06;5046601;27;101895;-72
2022/12/19 10:22:57;;;;;;;34.67;23.43;;;;;;;1.56;100.00;97326.53;5045200;27;105436;-72
2022/12/19 10:25:47;;;;;;;35.73;23.13;;;;;;;1.92;100.00;97311.06;5045990;27;102419;-72
2022/12/19 10:28:48;;;;;;;37.17;22.37;;;;;;;1.90;100.00;97313.03;5045224;27;101822;-72
2022/12/19 10:31:20;;;;;;;37.53;25.33;;;;;;;2.01;100.00;97302.13;5043468;27;105636;-72
2022/12/19 10:33:56;;;;;;;34.83;23.30;;;;;;;2.12;100.00;97285.97;5045741;27;102635;-72
2022/12/19 10:36:24;;;;;;;33.03;22.33;;;;;;;2.58;100.00;97277.06;5048370;27;101784;-72
2022/12/19 10:38:59;;;;;;;35.50;23.90;;;;;;;2.52;100.00;97273.31;5044184;27;105333;-72
2022/12/19 10:41:29;;;;;;;32.13;22.07;;;;;;;2.29;100.00;97282.25;5046368;27;101787;-72
2022/12/19 10:44:04;;;;;;;34.97;22.30;;;;;;;1.99;100.00;97281.34;5044903;27;105552;-72
2022/12/19 10:46:47;;;;;;;34.17;23.93;;;;;;;2.22;100.00;97276.06;5043854;27;103996;-72
2022/12/19 10:49:16;;;;;;;36.77;23.70;;;;;;;1.41;100.00;97272.38;5044693;27;101803;-72
2022/12/19 10:51:54;;;;;;;35.47;22.83;;;;;;;1.70;100.00;97267.31;5044802;27;104828;-72
2022/12/19 10:54:23;;;;;;;36.33;23.67;;;;;;;1.63;100.00;97272.41;5045657;27;102433;-72
2022/12/19 10:56:50;;;;;;;31.93;22.47;;;;;;;1.40;100.00;97266.34;5046275;27;101907;-72
2022/12/19 10:59:19;;;;;;;31.33;21.73;;;;;;;1.51;100.00;97260.69;5047557;27;105211;-72
2022/12/19 11:01:48;;;;;;;35.53;23.10;;;;;;;1.14;100.00;97272.84;5044207;27;102035;-72
2022/12/19 11:04:26;;;;;;;35.10;24.00;;;;;;;1.07;100.00;97277.13;5044517;27;105603;-72
2022/12/19 11:07:06;;;;;;;35.93;24.47;;;;;;;0.73;100.00;97274.78;5043944;27;105557;-72
2022/12/19 11:09:37;;;;;;;40.10;26.07;;;;;;;0.41;100.00;97269.63;5044312;27;101766;-72
2022/12/19 11:12:12;;;;;;;40.83;25.73;;;;;;;0.58;100.00;97270.41;5045662;27;102364;-72
2022/12/19 11:14:41;;;;;;;37.53;25.43;;;;;;;1.11;100.00;97262.72;5043678;27;104560;-72
2022/12/19 11:20:13;;;;;;;42.67;27.10;;;;;;;1.10;100.00;97245.38;5051347;27;101665;-72
2022/12/19 11:22:50;;;;;;;37.90;24.83;;;;;;;1.22;100.00;97238.75;5045963;27;102634;-72
2022/12/19 11:25:20;;;;;;;39.27;24.97;;;;;;;0.96;100.00;97238.22;5044816;27;101809;-72
2022/12/19 11:27:48;;;;;;;40.83;26.10;;;;;;;1.11;100.00;97242.56;5046144;27;102328;-72
2022/12/19 11:30:22;;;;;;;37.23;25.40;;;;;;;0.87;100.00;97239.22;5045480;27;102795;-72
2022/12/19 11:33:07;;;;;;;37.63;24.73;;;;;;;0.82;100.00;97244.97;5045582;27;101711;-72
2022/12/19 11:35:46;;;;;;;43.10;27.20;;;;;;;1.18;100.00;97233.03;5044719;27;105261;-72